Saturday, August 18, 2018, 2:52 AM GMT
Back to Local

CWSD, Summerside Automatic Weather Reporting System

Location: , , Canada Lat: 46.433
Local Time: 2:52 AM GMT ( 2:52 GMT) Lon: -63.85
Time Zone: GMT Elev: 78 ft

Show me the last for .
Show Coded

Time T Td Feel RH Dir Speed Gust Alt SLP Vis Weather Sky Remarks
2018-08-18 02:00 65 58 - 78 180° 9 - - 29.99 0 None
2018-08-18 01:00 65 57 - 74 180° 10 - - 30.01 0 None
2018-08-18 00:00 65 55 - 71 170° 9 - - 30.01 0 None
2018-08-17 23:00 65 55 - 68 170° 10 - - 30.00 0 None
2018-08-17 22:00 68 56 - 63 180° 9 - - 30.01 0 None
2018-08-17 21:00 70 55 76 58 160° 9 - - 30.01 0 None
2018-08-17 20:00 69 53 - 55 180° 6 - - 30.03 0 None
2018-08-17 19:00 69 53 - 56 200° 7 - - 30.04 0 None
2018-08-17 18:00 69 50 - 50 210° 8 - - 30.05 0 None
2018-08-17 17:00 69 54 - 58 250° 8 - - 30.06 0 None
2018-08-17 16:00 69 55 - 62 230° 7 - - 30.07 0 None
2018-08-17 15:00 69 53 - 57 210° 2 - - 30.09 0 1-hr Precip Total: 0.01"
2018-08-17 14:00 67 53 - 61 90° 2 - - 30.10 0 None
2018-08-17 13:00 65 53 - 64 360° 3 - - 30.10 0 None
2018-08-17 12:00 63 53 - 71 330° 7 - - 30.11 0 None
2018-08-17 11:00 60 55 - 83 330° 5 - - 30.09 0 None
2018-08-17 10:00 56 53 - 90 320° 5 - - 30.09 0 None
2018-08-17 09:00 57 54 - 88 320° 6 - - 30.08 0 None
2018-08-17 08:00 56 53 - 90 320° 6 - - 30.06 0 None
2018-08-17 07:00 57 54 - 89 320° 6 - - 30.06 0 None
2018-08-17 06:00 59 56 - 87 330° 7 - - 30.05 0 None
2018-08-17 05:00 60 57 - 90 310° 6 - - 30.03 0 None
2018-08-17 04:00 62 56 - 81 10° 6 - - 30.03 0 None
2018-08-17 03:00 62 57 - 84 30° 9 - - 30.03 0 None

Support USWX by starting your Amazon purchase here.